Time;durP1;ratioP1;P1;durP2;ratioP2;P2;SDS_P1;SDS_P2;PMS_P1;PMS_P2;Temp;Humidity;BMP_temperature;BMP_pressure;BME280_temperature;BME280_humidity;BME280_pressure;Samples;Min_cycle;Max_cycle;Signal;HPM_P1;HPM_P2
2022/04/21 00:01:34;;;;;;;15.70;10.00;;;;;;;;;;5055919;28;20746;-75
2022/04/21 00:04:00;;;;;;;12.87;9.57;;;;;;;;;;5057327;28;20223;-76
2022/04/21 00:06:25;;;;;;;12.57;8.60;;;;;;;;;;5056973;28;20285;-76
2022/04/21 00:08:50;;;;;;;11.48;7.85;;;;;;;;;;5056889;28;20016;-76
2022/04/21 00:11:16;;;;;;;9.60;7.25;;;;;;;;;;5056664;28;20021;-76
2022/04/21 00:13:41;;;;;;;10.40;7.38;;;;;;;;;;5056436;28;20444;-76
2022/04/21 00:16:07;;;;;;;12.33;6.63;;;;;;;;;;5057254;28;20029;-76
2022/04/21 00:18:32;;;;;;;10.32;6.45;;;;;;;;;;5056435;28;20304;-76
2022/04/21 00:20:59;;;;;;;8.90;6.50;;;;;;;;;;5057016;28;20032;-76
2022/04/21 00:23:27;;;;;;;9.93;6.32;;;;;;;;;;5056987;28;20253;-76
2022/04/21 00:25:54;;;;;;;9.50;6.18;;;;;;;;;;5056783;28;20085;-76
2022/04/21 00:28:20;;;;;;;7.65;5.82;;;;;;;;;;5057503;28;20359;-75
2022/04/21 00:30:45;;;;;;;9.10;6.07;;;;;;;;;;5056873;28;20035;-75
2022/04/21 00:33:11;;;;;;;8.27;6.20;;;;;;;;;;5055864;28;20094;-76
2022/04/21 00:35:36;;;;;;;9.18;6.35;;;;;;;;;;5056621;28;20051;-75
2022/04/21 00:38:01;;;;;;;9.52;6.22;;;;;;;;;;5056945;28;20047;-76
2022/04/21 00:40:29;;;;;;;11.18;6.57;;;;;;;;;;5056811;28;20032;-76
2022/04/21 00:42:55;;;;;;;11.13;6.07;;;;;;;;;;5056815;28;20025;-76
2022/04/21 00:45:21;;;;;;;9.02;6.25;;;;;;;;;;5056892;28;20472;-76
2022/04/21 00:47:47;;;;;;;7.68;5.60;;;;;;;;;;5055815;28;20125;-76
2022/04/21 00:50:16;;;;;;;8.70;5.55;;;;;;;;;;5056878;28;20115;-75
2022/04/21 00:52:42;;;;;;;8.20;5.53;;;;;;;;;;5056754;28;20021;-76
2022/04/21 00:55:08;;;;;;;8.32;5.80;;;;;;;;;;5056060;28;20122;-75
2022/04/21 00:57:34;;;;;;;6.20;5.07;;;;;;;;;;5056881;28;20025;-75
2022/04/21 01:00:01;;;;;;;10.52;5.75;;;;;;;;;;5056740;28;20111;-76
2022/04/21 01:05:11;;;;;;;7.25;5.38;;;;;;;;;;5056716;28;20122;-75
2022/04/21 01:07:37;;;;;;;7.32;5.78;;;;;;;;;;5056621;28;20021;-75
2022/04/21 01:10:02;;;;;;;7.05;5.70;;;;;;;;;;5056831;28;20047;-77
2022/04/21 01:12:29;;;;;;;8.60;5.57;;;;;;;;;;5057002;28;20033;-74
2022/04/21 01:14:55;;;;;;;8.05;5.50;;;;;;;;;;5060142;28;20037;-75
2022/04/21 01:17:30;;;;;;;8.05;5.75;;;;;;;;;;5061485;28;20032;-74
2022/04/21 01:19:56;;;;;;;9.82;6.25;;;;;;;;;;5061505;28;20078;-75
2022/04/21 01:22:21;;;;;;;8.10;5.80;;;;;;;;;;5061524;28;20021;-75
2022/04/21 01:24:46;;;;;;;7.53;5.57;;;;;;;;;;5062291;28;20510;-75
2022/04/21 01:27:12;;;;;;;9.03;5.70;;;;;;;;;;5061687;28;20840;-75
2022/04/21 01:29:37;;;;;;;9.00;5.70;;;;;;;;;;5061180;28;20751;-75
2022/04/21 01:32:02;;;;;;;10.33;5.97;;;;;;;;;;5065298;28;20017;-75
2022/04/21 01:34:28;;;;;;;9.90;6.13;;;;;;;;;;5064602;28;20309;-75
2022/04/21 01:42:20;;;;;;;8.73;5.70;;;;;;;;;;5060751;28;20147;-76
2022/04/21 01:44:46;;;;;;;9.70;5.67;;;;;;;;;;5061108;28;20493;-76
2022/04/21 01:47:11;;;;;;;10.03;6.03;;;;;;;;;;5061560;28;20674;-76
2022/04/21 01:49:36;;;;;;;9.18;6.07;;;;;;;;;;5060853;28;20653;-76
2022/04/21 01:52:02;;;;;;;10.45;5.78;;;;;;;;;;5060400;28;20021;-75
2022/04/21 01:54:27;;;;;;;11.15;7.05;;;;;;;;;;5060466;28;20025;-75
2022/04/21 01:56:53;;;;;;;7.72;6.03;;;;;;;;;;5060103;28;20117;-75
2022/04/21 01:59:18;;;;;;;12.80;6.90;;;;;;;;;;5061041;28;20092;-75
2022/04/21 02:01:43;;;;;;;7.83;5.73;;;;;;;;;;5060591;28;20048;-75
2022/04/21 02:04:08;;;;;;;11.35;6.47;;;;;;;;;;5060653;28;20262;-75
2022/04/21 02:06:33;;;;;;;12.47;6.93;;;;;;;;;;5060808;28;20112;-76
2022/04/21 02:08:59;;;;;;;8.18;6.10;;;;;;;;;;5060121;28;20293;-75
2022/04/21 02:11:24;;;;;;;12.23;6.50;;;;;;;;;;5060179;28;20067;-75
2022/04/21 02:13:51;;;;;;;9.38;6.30;;;;;;;;;;5059344;28;20028;-75
2022/04/21 02:16:17;;;;;;;9.20;6.55;;;;;;;;;;5060054;28;20021;-75
2022/04/21 02:18:42;;;;;;;7.80;5.97;;;;;;;;;;5057952;28;20074;-75
2022/04/21 02:21:07;;;;;;;8.70;6.13;;;;;;;;;;5059403;28;20016;-75
2022/04/21 02:23:32;;;;;;;10.30;7.00;;;;;;;;;;5059447;28;20104;-75
2022/04/21 02:25:57;;;;;;;9.68;6.22;;;;;;;;;;5059372;28;20017;-75
2022/04/21 02:28:23;;;;;;;9.33;6.17;;;;;;;;;;5059243;28;20044;-75
2022/04/21 02:30:48;;;;;;;8.25;5.95;;;;;;;;;;5059124;28;20258;-74
2022/04/21 02:33:13;;;;;;;10.10;6.32;;;;;;;;;;5057607;28;20029;-75
2022/04/21 02:35:39;;;;;;;11.07;6.68;;;;;;;;;;5058196;28;20032;-75
2022/04/21 02:38:04;;;;;;;10.23;7.07;;;;;;;;;;5057072;28;20533;-74
2022/04/21 02:40:30;;;;;;;12.05;6.47;;;;;;;;;;5058551;28;20040;-75
2022/04/21 02:42:55;;;;;;;11.52;6.93;;;;;;;;;;5057659;28;20028;-75
2022/04/21 02:45:20;;;;;;;10.07;6.70;;;;;;;;;;5058262;28;20035;-75
2022/04/21 02:47:46;;;;;;;10.88;6.50;;;;;;;;;;5058641;28;20258;-75
2022/04/21 02:50:14;;;;;;;12.07;7.13;;;;;;;;;;5057901;28;20539;-76
2022/04/21 02:52:41;;;;;;;12.70;7.13;;;;;;;;;;5058743;28;20024;-75
2022/04/21 02:57:53;;;;;;;13.27;6.75;;;;;;;;;;5057705;28;20040;-75
2022/04/21 03:00:18;;;;;;;10.13;6.72;;;;;;;;;;5059052;28;20025;-75
2022/04/21 03:02:44;;;;;;;10.15;6.93;;;;;;;;;;5059382;28;20390;-75
2022/04/21 03:05:09;;;;;;;19.35;7.82;;;;;;;;;;5058952;28;20124;-75
2022/04/21 03:07:34;;;;;;;11.55;7.60;;;;;;;;;;5058744;28;20033;-75
2022/04/21 03:10:00;;;;;;;16.13;8.75;;;;;;;;;;5059365;28;20067;-75
2022/04/21 03:12:26;;;;;;;15.23;7.90;;;;;;;;;;5059222;28;20074;-75
2022/04/21 03:14:52;;;;;;;19.17;8.48;;;;;;;;;;5057384;28;20115;-76
2022/04/21 03:17:18;;;;;;;21.88;9.02;;;;;;;;;;5058813;28;20024;-75
2022/04/21 03:19:43;;;;;;;18.73;8.88;;;;;;;;;;5058507;28;20029;-76
2022/04/21 03:25:00;;;;;;;23.58;10.63;;;;;;;;;;5059798;28;20276;-75
2022/04/21 03:27:29;;;;;;;27.23;10.88;;;;;;;;;;5059149;28;20031;-75
2022/04/21 03:29:58;;;;;;;25.67;10.20;;;;;;;;;;5057819;28;20021;-75
2022/04/21 03:32:23;;;;;;;28.20;9.77;;;;;;;;;;5057952;28;20060;-75
2022/04/21 03:34:49;;;;;;;26.30;10.15;;;;;;;;;;5058008;28;20040;-76
2022/04/21 03:37:15;;;;;;;26.65;10.63;;;;;;;;;;5059573;28;20394;-75
2022/04/21 03:39:42;;;;;;;28.88;11.60;;;;;;;;;;5058757;28;20529;-74
2022/04/21 03:42:17;;;;;;;33.05;11.93;;;;;;;;;;5058894;28;20032;-76
2022/04/21 03:44:43;;;;;;;22.27;11.05;;;;;;;;;;5059356;28;20389;-76
2022/04/21 03:47:08;;;;;;;30.25;10.57;;;;;;;;;;5058771;28;20032;-75
2022/04/21 03:49:34;;;;;;;24.67;10.15;;;;;;;;;;5058908;28;20020;-75
2022/04/21 03:51:59;;;;;;;30.08;11.20;;;;;;;;;;5058325;28;20025;-75
2022/04/21 03:54:26;;;;;;;29.83;10.93;;;;;;;;;;5057205;28;20033;-76
2022/04/21 03:56:52;;;;;;;25.33;10.43;;;;;;;;;;5058015;28;20059;-77
2022/04/21 03:59:18;;;;;;;19.77;10.50;;;;;;;;;;5057334;28;20075;-76
2022/04/21 04:01:44;;;;;;;21.98;11.38;;;;;;;;;;5057503;28;20029;-75
2022/04/21 04:04:09;;;;;;;27.15;11.95;;;;;;;;;;5057639;28;20034;-76
2022/04/21 04:12:03;;;;;;;23.90;11.57;;;;;;;;;;5058353;28;20456;-76
2022/04/21 04:14:29;;;;;;;26.05;11.98;;;;;;;;;;5056718;28;20021;-76
2022/04/21 04:16:54;;;;;;;22.48;11.75;;;;;;;;;;5058467;28;20109;-76
2022/04/21 04:19:19;;;;;;;26.58;13.10;;;;;;;;;;5057761;28;20111;-75
2022/04/21 04:21:44;;;;;;;22.67;11.00;;;;;;;;;;5057804;28;20033;-75
2022/04/21 04:24:10;;;;;;;30.90;11.57;;;;;;;;;;5056034;28;20288;-76
2022/04/21 04:26:35;;;;;;;29.47;11.77;;;;;;;;;;5056431;28;20262;-76
2022/04/21 04:29:02;;;;;;;30.90;12.38;;;;;;;;;;5058099;28;20254;-76
2022/04/21 04:31:27;;;;;;;26.58;11.82;;;;;;;;;;5057126;28;20025;-75
2022/04/21 04:33:53;;;;;;;26.75;10.93;;;;;;;;;;5058328;28;20078;-76
2022/04/21 04:36:19;;;;;;;29.77;11.25;;;;;;;;;;5057756;28;20032;-76
2022/04/21 04:38:44;;;;;;;36.40;12.20;;;;;;;;;;5057154;28;20031;-76
2022/04/21 04:43:54;;;;;;;27.02;11.50;;;;;;;;;;5057569;28;20024;-75
2022/04/21 04:46:38;;;;;;;32.88;12.02;;;;;;;;;;5057491;28;20033;-76
2022/04/21 04:49:07;;;;;;;28.35;12.85;;;;;;;;;;5058165;28;20024;-76
2022/04/21 04:51:34;;;;;;;32.33;13.63;;;;;;;;;;5057114;28;20040;-75
2022/04/21 04:54:00;;;;;;;31.50;13.90;;;;;;;;;;5058140;28;20024;-76
2022/04/21 04:56:27;;;;;;;40.15;14.07;;;;;;;;;;5056145;28;20137;-75
2022/04/21 04:58:53;;;;;;;42.92;13.73;;;;;;;;;;5057218;28;20089;-76
2022/04/21 05:01:26;;;;;;;31.48;12.32;;;;;;;;;;5057642;28;20059;-75
2022/04/21 05:04:05;;;;;;;37.70;13.65;;;;;;;;;;5058429;28;20025;-75
2022/04/21 05:06:50;;;;;;;33.65;12.63;;;;;;;;;;5058026;28;20428;-76
2022/04/21 05:09:17;;;;;;;37.20;12.98;;;;;;;;;;5057660;28;20037;-76
2022/04/21 05:11:46;;;;;;;36.00;13.55;;;;;;;;;;5058331;28;20029;-76
2022/04/21 05:14:13;;;;;;;35.58;12.30;;;;;;;;;;5057793;28;20029;-76
2022/04/21 05:16:39;;;;;;;33.28;13.45;;;;;;;;;;5057868;28;20056;-76
2022/04/21 05:19:08;;;;;;;46.45;13.70;;;;;;;;;;5056150;28;20038;-76
2022/04/21 05:21:35;;;;;;;41.00;13.70;;;;;;;;;;5057443;28;20084;-76
2022/04/21 05:24:01;;;;;;;40.60;14.02;;;;;;;;;;5057553;28;20031;-75
2022/04/21 05:26:27;;;;;;;47.25;13.68;;;;;;;;;;5056653;28;20485;-76
2022/04/21 05:28:54;;;;;;;48.03;13.38;;;;;;;;;;5055907;28;20064;-75
2022/04/21 05:31:19;;;;;;;40.65;13.88;;;;;;;;;;5057882;28;20021;-75
2022/04/21 05:33:45;;;;;;;39.85;13.35;;;;;;;;;;5057104;28;20028;-75
2022/04/21 05:36:11;;;;;;;39.08;13.13;;;;;;;;;;5055255;28;20052;-76
2022/04/21 05:38:37;;;;;;;36.70;12.70;;;;;;;;;;5057225;28;20366;-75
2022/04/21 05:41:03;;;;;;;36.33;12.73;;;;;;;;;;5057566;28;20067;-76
2022/04/21 05:43:41;;;;;;;34.90;12.95;;;;;;;;;;5056941;28;20393;-80
2022/04/21 05:46:07;;;;;;;39.88;13.45;;;;;;;;;;5056749;28;20021;-76
2022/04/21 05:48:35;;;;;;;33.42;12.98;;;;;;;;;;5056035;28;20064;-75
2022/04/21 05:51:00;;;;;;;36.53;13.80;;;;;;;;;;5056922;28;20112;-76
2022/04/21 05:53:27;;;;;;;27.85;11.80;;;;;;;;;;5056337;28;20063;-76
2022/04/21 05:55:53;;;;;;;39.58;13.57;;;;;;;;;;5055260;28;20025;-76
2022/04/21 05:58:18;;;;;;;36.75;12.88;;;;;;;;;;5056085;28;20126;-75
2022/04/21 06:00:44;;;;;;;33.05;12.55;;;;;;;;;;5055675;28;20107;-76
2022/04/21 06:03:11;;;;;;;32.40;12.25;;;;;;;;;;5056440;28;20474;-75
2022/04/21 06:05:36;;;;;;;39.53;13.20;;;;;;;;;;5055956;28;20025;-76
2022/04/21 06:08:02;;;;;;;40.22;13.52;;;;;;;;;;5055956;28;20029;-75
2022/04/21 06:10:27;;;;;;;36.22;13.98;;;;;;;;;;5055088;28;20474;-75
2022/04/21 06:12:53;;;;;;;40.13;13.57;;;;;;;;;;5055553;28;20047;-75
2022/04/21 06:15:19;;;;;;;55.35;15.93;;;;;;;;;;5056046;28;20035;-75
2022/04/21 06:17:45;;;;;;;45.20;16.45;;;;;;;;;;5059160;28;20108;-75
2022/04/21 06:20:11;;;;;;;41.78;14.35;;;;;;;;;;5060419;28;20039;-75
2022/04/21 06:22:36;;;;;;;44.20;15.23;;;;;;;;;;5060939;28;20025;-76
2022/04/21 06:25:02;;;;;;;40.22;15.77;;;;;;;;;;5059503;28;20029;-76
2022/04/21 06:27:27;;;;;;;41.13;14.05;;;;;;;;;;5059836;28;20497;-75
2022/04/21 06:29:52;;;;;;;40.15;14.57;;;;;;;;;;5059300;28;20025;-76
2022/04/21 06:32:18;;;;;;;34.00;13.82;;;;;;;;;;5059551;28;20120;-75
2022/04/21 06:34:43;;;;;;;31.45;13.38;;;;;;;;;;5058539;28;20033;-75
2022/04/21 06:37:08;;;;;;;38.88;13.25;;;;;;;;;;5059024;28;20029;-75
2022/04/21 06:39:34;;;;;;;29.63;10.93;;;;;;;;;;5058660;28;20093;-75
2022/04/21 06:41:59;;;;;;;28.02;11.90;;;;;;;;;;5059125;28;20498;-75
2022/04/21 06:49:52;;;;;;;34.30;11.70;;;;;;;;;;5058822;28;20075;-76
2022/04/21 06:52:17;;;;;;;29.42;12.05;;;;;;;;;;5058882;28;20397;-75
2022/04/21 06:54:42;;;;;;;35.58;12.00;;;;;;;;;;5059403;28;20103;-75
2022/04/21 06:57:07;;;;;;;27.17;12.85;;;;;;;;;;5058782;28;20025;-74
2022/04/21 06:59:32;;;;;;;30.90;12.73;;;;;;;;;;5058681;28;20029;-76
2022/04/21 07:01:58;;;;;;;24.20;11.18;;;;;;;;;;5058873;28;20266;-75
2022/04/21 07:04:23;;;;;;;25.13;11.53;;;;;;;;;;5058300;28;20036;-75
2022/04/21 07:06:48;;;;;;;25.25;11.65;;;;;;;;;;5057975;28;20250;-75
2022/04/21 07:09:14;;;;;;;27.20;11.07;;;;;;;;;;5058325;28;20047;-76
2022/04/21 07:11:40;;;;;;;23.13;11.10;;;;;;;;;;5057550;28;20414;-75
2022/04/21 07:14:05;;;;;;;26.42;11.38;;;;;;;;;;5057236;28;20068;-76
2022/04/21 07:16:31;;;;;;;26.75;11.32;;;;;;;;;;5056146;28;20074;-75
2022/04/21 07:18:56;;;;;;;26.92;11.27;;;;;;;;;;5056906;28;20033;-76
2022/04/21 07:21:21;;;;;;;24.48;11.65;;;;;;;;;;5057432;28;20064;-76
2022/04/21 07:23:47;;;;;;;27.52;12.63;;;;;;;;;;5056685;28;20059;-76
2022/04/21 07:26:12;;;;;;;29.05;11.77;;;;;;;;;;5057409;28;20492;-75
2022/04/21 07:28:38;;;;;;;25.73;12.00;;;;;;;;;;5055711;28;20021;-75
2022/04/21 07:31:03;;;;;;;27.00;11.82;;;;;;;;;;5056777;28;20096;-76
2022/04/21 07:33:29;;;;;;;25.98;11.73;;;;;;;;;;5056219;28;20049;-77
2022/04/21 07:35:54;;;;;;;23.93;11.53;;;;;;;;;;5054757;28;20036;-76
2022/04/21 07:38:19;;;;;;;25.53;11.60;;;;;;;;;;5055410;28;20282;-76
2022/04/21 07:40:49;;;;;;;24.75;11.40;;;;;;;;;;5056788;28;20269;-76
2022/04/21 07:43:15;;;;;;;25.63;11.00;;;;;;;;;;5056502;28;20103;-76
2022/04/21 07:45:41;;;;;;;19.80;10.43;;;;;;;;;;5056409;28;20075;-75
2022/04/21 07:48:06;;;;;;;16.85;8.93;;;;;;;;;;5056719;28;20032;-75
2022/04/21 07:50:32;;;;;;;25.10;10.35;;;;;;;;;;5056723;28;20059;-75
2022/04/21 07:53:18;;;;;;;19.25;8.90;;;;;;;;;;5056617;28;20021;-76
2022/04/21 07:55:50;;;;;;;18.45;9.68;;;;;;;;;;5055243;28;20024;-75
2022/04/21 07:58:15;;;;;;;17.15;8.68;;;;;;;;;;5056014;28;20053;-75
2022/04/21 08:00:40;;;;;;;17.75;8.75;;;;;;;;;;5056626;28;20358;-75
2022/04/21 08:03:06;;;;;;;18.42;8.77;;;;;;;;;;5054589;28;20021;-74
2022/04/21 08:05:32;;;;;;;17.20;8.20;;;;;;;;;;5056053;28;20032;-76
2022/04/21 08:07:58;;;;;;;14.20;8.25;;;;;;;;;;5055537;28;20021;-75
2022/04/21 08:10:24;;;;;;;15.23;7.85;;;;;;;;;;5055684;28;20029;-76
2022/04/21 08:12:52;;;;;;;15.07;7.90;;;;;;;;;;5056000;28;20021;-75
2022/04/21 08:15:28;;;;;;;13.38;7.38;;;;;;;;;;5056316;28;20464;-75
2022/04/21 08:17:58;;;;;;;14.18;7.68;;;;;;;;;;5056235;28;20032;-75
2022/04/21 08:20:24;;;;;;;12.15;7.28;;;;;;;;;;5056081;28;20394;-74
2022/04/21 08:22:50;;;;;;;13.57;7.40;;;;;;;;;;5056772;28;20029;-76
2022/04/21 08:33:28;;;;;;;16.70;8.20;;;;;;;;;;5057468;28;20108;-76
2022/04/21 08:35:58;;;;;;;14.30;8.15;;;;;;;;;;5056912;28;20482;-76
2022/04/21 08:38:24;;;;;;;15.55;8.10;;;;;;;;;;5056658;28;20029;-75
2022/04/21 08:41:03;;;;;;;14.85;7.85;;;;;;;;;;5057002;28;20056;-75
2022/04/21 08:43:28;;;;;;;17.92;7.88;;;;;;;;;;5056806;28;20025;-75
2022/04/21 08:45:55;;;;;;;16.08;7.30;;;;;;;;;;5056896;28;20029;-75
2022/04/21 08:48:22;;;;;;;15.60;7.03;;;;;;;;;;5056726;28;20103;-75
2022/04/21 08:50:48;;;;;;;14.02;7.05;;;;;;;;;;5057157;28;20025;-75
2022/04/21 08:53:21;;;;;;;15.65;7.68;;;;;;;;;;5057199;28;20032;-76
2022/04/21 08:55:48;;;;;;;13.85;7.53;;;;;;;;;;5056902;28;20029;-74
2022/04/21 08:58:13;;;;;;;13.38;7.55;;;;;;;;;;5055964;28;20033;-76
2022/04/21 09:00:40;;;;;;;12.40;6.72;;;;;;;;;;5055938;28;20032;-75
2022/04/21 09:03:07;;;;;;;11.63;6.20;;;;;;;;;;5057053;28;20057;-74
2022/04/21 09:05:32;;;;;;;11.50;6.32;;;;;;;;;;5056917;28;20043;-75
2022/04/21 09:07:59;;;;;;;11.48;5.85;;;;;;;;;;5056085;28;20053;-75
2022/04/21 09:10:28;;;;;;;8.85;5.88;;;;;;;;;;5056624;28;20041;-76
2022/04/21 09:12:55;;;;;;;8.48;5.22;;;;;;;;;;5056173;28;20489;-75
2022/04/21 09:15:23;;;;;;;6.85;5.55;;;;;;;;;;5055916;28;20040;-76
2022/04/21 09:17:57;;;;;;;7.95;5.82;;;;;;;;;;5055247;28;20036;-75
2022/04/21 09:20:25;;;;;;;8.15;5.85;;;;;;;;;;5056083;28;20025;-75
2022/04/21 09:22:54;;;;;;;10.30;6.32;;;;;;;;;;5057350;28;20099;-76
2022/04/21 09:25:30;;;;;;;9.90;6.63;;;;;;;;;;5057076;28;20029;-75
2022/04/21 09:27:57;;;;;;;10.25;6.85;;;;;;;;;;5056846;28;20029;-75
2022/04/21 09:30:22;;;;;;;10.00;6.00;;;;;;;;;;5056773;28;20036;-75
2022/04/21 09:32:55;;;;;;;10.45;6.07;;;;;;;;;;5057812;28;20033;-76
2022/04/21 09:35:28;;;;;;;9.95;5.95;;;;;;;;;;5057194;28;20478;-76
2022/04/21 09:37:57;;;;;;;7.95;5.80;;;;;;;;;;5057885;28;20056;-75
2022/04/21 09:40:25;;;;;;;8.88;5.63;;;;;;;;;;5057358;28;20029;-75
2022/04/21 09:42:55;;;;;;;9.35;6.47;;;;;;;;;;5056484;28;20032;-76
2022/04/21 09:48:25;;;;;;;10.18;6.57;;;;;;;;;;5057387;28;20079;-76
2022/04/21 09:50:53;;;;;;;12.60;7.30;;;;;;;;;;5057422;28;20048;-76
2022/04/21 09:53:25;;;;;;;11.95;7.05;;;;;;;;;;5061323;28;20023;-76
2022/04/21 09:55:52;;;;;;;11.77;7.10;;;;;;;;;;5060968;28;20024;-77
2022/04/21 09:58:18;;;;;;;12.68;7.35;;;;;;;;;;5060424;28;20078;-76
2022/04/21 10:00:44;;;;;;;14.35;7.82;;;;;;;;;;5059675;28;20020;-76
2022/04/21 10:03:11;;;;;;;13.30;7.78;;;;;;;;;;5060777;28;20051;-76
2022/04/21 10:05:39;;;;;;;13.18;8.43;;;;;;;;;;5060492;28;20143;-76
2022/04/21 10:08:06;;;;;;;15.65;8.68;;;;;;;;;;5060470;28;20051;-76
2022/04/21 10:10:33;;;;;;;11.52;7.18;;;;;;;;;;5060505;28;20028;-75
2022/04/21 10:13:00;;;;;;;14.20;8.07;;;;;;;;;;5060569;28;20478;-76
2022/04/21 10:15:26;;;;;;;13.98;8.50;;;;;;;;;;5061060;28;20113;-75
2022/04/21 10:17:51;;;;;;;15.23;8.35;;;;;;;;;;5061484;28;20048;-76
2022/04/21 10:20:16;;;;;;;12.18;8.35;;;;;;;;;;5059708;28;20027;-75
2022/04/21 10:22:42;;;;;;;14.93;8.45;;;;;;;;;;5062177;28;20044;-76
2022/04/21 10:25:08;;;;;;;13.20;8.32;;;;;;;;;;5060208;28;20025;-76
2022/04/21 10:27:39;;;;;;;8.93;6.25;;;;;;;;;;5060677;28;20040;-76
2022/04/21 10:30:15;;;;;;;8.57;6.03;;;;;;;;;;5060519;28;20382;-76
2022/04/21 10:32:48;;;;;;;8.50;5.72;;;;;;;;;;5059535;28;20027;-76
2022/04/21 10:35:40;;;;;;;8.97;5.47;;;;;;;;;;5058409;28;20075;-76
2022/04/21 10:38:14;;;;;;;10.45;5.75;;;;;;;;;;5052657;28;20037;-77
2022/04/21 10:41:03;;;;;;;10.27;5.80;;;;;;;;;;5055857;28;20104;-76
2022/04/21 10:44:00;;;;;;;8.77;5.53;;;;;;;;;;5055444;28;20021;-76
2022/04/21 10:46:31;;;;;;;8.40;5.40;;;;;;;;;;5055766;28;20021;-78
2022/04/21 10:48:58;;;;;;;8.18;5.07;;;;;;;;;;5055601;28;20047;-76
2022/04/21 10:51:42;;;;;;;7.95;5.40;;;;;;;;;;5055761;28;20036;-77
2022/04/21 11:00:08;;;;;;;7.53;4.28;;;;;;;;;;5055116;28;20414;-77
2022/04/21 11:02:38;;;;;;;8.50;4.90;;;;;;;;;;5054919;28;20029;-76
2022/04/21 11:05:23;;;;;;;7.38;5.03;;;;;;;;;;5055443;28;20056;-77
2022/04/21 11:07:56;;;;;;;7.55;4.97;;;;;;;;;;5055541;28;20029;-77
2022/04/21 11:10:26;;;;;;;11.45;5.07;;;;;;;;;;5055441;28;20017;-76
2022/04/21 11:12:52;;;;;;;6.97;4.97;;;;;;;;;;5055497;28;20060;-76
2022/04/21 11:15:33;;;;;;;10.05;5.25;;;;;;;;;;5053858;28;20064;-76
2022/04/21 11:18:01;;;;;;;7.80;4.80;;;;;;;;;;5054862;28;20482;-76
2022/04/21 11:20:26;;;;;;;7.13;4.88;;;;;;;;;;5054879;28;20033;-76
2022/04/21 11:22:51;;;;;;;7.30;4.72;;;;;;;;;;5053602;28;20086;-77
2022/04/21 11:25:17;;;;;;;5.40;4.03;;;;;;;;;;5054606;28;20389;-77
2022/04/21 11:27:44;;;;;;;6.85;4.15;;;;;;;;;;5054468;28;20098;-76
2022/04/21 11:30:12;;;;;;;7.10;4.25;;;;;;;;;;5054644;28;20077;-77
2022/04/21 11:32:38;;;;;;;5.90;3.60;;;;;;;;;;5054814;28;20051;-76
2022/04/21 11:35:05;;;;;;;6.22;4.03;;;;;;;;;;5054736;28;20021;-77
2022/04/21 11:37:49;;;;;;;6.95;4.68;;;;;;;;;;5053150;28;20032;-77
2022/04/21 11:40:22;;;;;;;;;;;;;;;;;;5054765;28;20032;-76
2022/04/21 11:42:49;;;;;;;7.07;3.90;;;;;;;;;;5054591;28;19916;-76
2022/04/21 11:45:28;;;;;;;7.43;4.15;;;;;;;;;;5053114;28;20025;-77
2022/04/21 11:47:54;;;;;;;5.47;3.85;;;;;;;;;;5054183;28;20036;-75
2022/04/21 11:50:21;;;;;;;6.93;4.13;;;;;;;;;;5055022;28;20035;-76
2022/04/21 11:52:47;;;;;;;6.55;4.10;;;;;;;;;;5052919;28;20409;-77
2022/04/21 11:55:15;;;;;;;6.43;4.00;;;;;;;;;;5053734;28;20017;-77
2022/04/21 11:57:45;;;;;;;7.20;4.13;;;;;;;;;;5054221;28;20498;-77
2022/04/21 12:00:11;;;;;;;6.53;3.95;;;;;;;;;;5053918;28;20418;-77
2022/04/21 12:08:11;;;;;;;5.68;4.03;;;;;;;;;;5053858;28;20036;-77
2022/04/21 12:10:37;;;;;;;6.65;4.65;;;;;;;;;;5053862;28;20394;-75
2022/04/21 12:13:03;;;;;;;8.35;4.28;;;;;;;;;;5053861;28;20024;-77
2022/04/21 12:15:31;;;;;;;6.65;4.82;;;;;;;;;;5053442;28;20029;-77
2022/04/21 12:18:01;;;;;;;7.28;4.60;;;;;;;;;;5053775;28;20098;-77
2022/04/21 12:20:27;;;;;;;6.50;4.45;;;;;;;;;;5053772;28;20039;-77
2022/04/21 12:22:53;;;;;;;6.35;4.22;;;;;;;;;;5052462;28;20048;-78
2022/04/21 12:25:19;;;;;;;6.75;4.15;;;;;;;;;;5053675;28;20094;-77
2022/04/21 12:27:44;;;;;;;6.97;3.95;;;;;;;;;;5053450;28;20482;-77
2022/04/21 12:30:11;;;;;;;5.90;3.95;;;;;;;;;;5053722;28;20059;-77
2022/04/21 12:32:39;;;;;;;6.82;3.78;;;;;;;;;;5053571;28;20032;-78
2022/04/21 12:35:07;;;;;;;6.80;4.10;;;;;;;;;;5053404;28;20017;-77
2022/04/21 12:37:37;;;;;;;8.23;4.13;;;;;;;;;;5053575;28;20474;-78
2022/04/21 12:40:13;;;;;;;5.50;4.10;;;;;;;;;;5053236;28;20072;-77
2022/04/21 12:42:40;;;;;;;7.13;4.38;;;;;;;;;;5053461;28;20021;-76
2022/04/21 12:45:07;;;;;;;7.30;4.35;;;;;;;;;;5053378;28;20025;-77
2022/04/21 12:47:42;;;;;;;7.15;4.07;;;;;;;;;;5053320;28;20421;-77
2022/04/21 12:50:09;;;;;;;7.95;5.15;;;;;;;;;;5053561;28;20025;-77
2022/04/21 12:52:44;;;;;;;7.68;5.20;;;;;;;;;;5053266;28;20513;-78
2022/04/21 12:55:13;;;;;;;10.80;6.32;;;;;;;;;;5053660;28;20039;-77
2022/04/21 12:57:40;;;;;;;10.13;6.38;;;;;;;;;;5051830;28;20024;-77
2022/04/21 13:00:10;;;;;;;10.70;5.97;;;;;;;;;;5053089;28;20025;-77
2022/04/21 13:02:36;;;;;;;8.35;5.85;;;;;;;;;;5053049;28;20032;-77
2022/04/21 13:05:01;;;;;;;8.45;5.68;;;;;;;;;;5053183;28;20109;-76
2022/04/21 13:07:27;;;;;;;8.80;5.28;;;;;;;;;;5053151;28;20020;-77
2022/04/21 13:09:53;;;;;;;9.05;5.57;;;;;;;;;;5053339;28;20100;-77
2022/04/21 13:12:18;;;;;;;8.82;5.85;;;;;;;;;;5053637;28;20064;-77
2022/04/21 13:14:44;;;;;;;7.75;5.13;;;;;;;;;;5053139;28;20060;-77
2022/04/21 13:17:09;;;;;;;8.60;5.30;;;;;;;;;;5053280;28;20433;-77
2022/04/21 13:19:34;;;;;;;8.88;5.63;;;;;;;;;;5053121;28;20024;-76
2022/04/21 13:22:01;;;;;;;9.57;5.53;;;;;;;;;;5053674;28;20078;-77
2022/04/21 13:24:27;;;;;;;9.63;5.97;;;;;;;;;;5052996;28;20028;-77
2022/04/21 13:26:53;;;;;;;9.55;5.32;;;;;;;;;;5054674;28;20032;-76
2022/04/21 13:29:19;;;;;;;8.35;4.80;;;;;;;;;;5056372;28;20024;-77
2022/04/21 13:34:28;;;;;;;7.65;5.00;;;;;;;;;;5057362;28;20525;-76
2022/04/21 13:36:54;;;;;;;7.93;5.07;;;;;;;;;;5057052;28;20029;-77
2022/04/21 13:39:19;;;;;;;12.75;5.85;;;;;;;;;;5056851;28;20057;-76
2022/04/21 13:41:46;;;;;;;7.07;4.45;;;;;;;;;;5057045;28;20068;-77
2022/04/21 13:44:12;;;;;;;6.82;4.75;;;;;;;;;;5056786;28;20048;-78
2022/04/21 13:46:37;;;;;;;6.70;4.88;;;;;;;;;;5056625;28;20478;-77
2022/04/21 13:49:04;;;;;;;8.85;4.93;;;;;;;;;;5055394;28;20071;-77
2022/04/21 13:51:29;;;;;;;6.93;4.68;;;;;;;;;;5057179;28;20043;-78
2022/04/21 13:53:55;;;;;;;8.45;5.03;;;;;;;;;;5056093;28;20096;-76
2022/04/21 13:56:22;;;;;;;9.27;4.53;;;;;;;;;;5055829;28;20552;-76
2022/04/21 13:58:47;;;;;;;7.72;4.55;;;;;;;;;;5056550;28;20401;-77
2022/04/21 14:01:12;;;;;;;6.75;4.43;;;;;;;;;;5056928;28;20104;-76
2022/04/21 14:03:38;;;;;;;9.55;4.78;;;;;;;;;;5056378;28;20025;-76
2022/04/21 14:06:07;;;;;;;8.10;4.72;;;;;;;;;;5056229;28;20108;-77
2022/04/21 14:08:34;;;;;;;10.00;5.03;;;;;;;;;;5056435;28;20029;-77
2022/04/21 14:10:59;;;;;;;9.55;5.00;;;;;;;;;;5054905;28;20033;-77
2022/04/21 14:13:24;;;;;;;8.20;4.88;;;;;;;;;;5056190;28;20024;-77
2022/04/21 14:15:51;;;;;;;12.40;5.03;;;;;;;;;;5057041;28;20082;-76
2022/04/21 14:18:16;;;;;;;11.13;5.03;;;;;;;;;;5056419;28;20639;-77
2022/04/21 14:20:43;;;;;;;8.98;5.10;;;;;;;;;;5056413;28;20032;-77
2022/04/21 14:23:08;;;;;;;12.02;5.70;;;;;;;;;;5056435;28;20043;-77
2022/04/21 14:25:33;;;;;;;9.55;5.85;;;;;;;;;;5056081;28;20147;-77
2022/04/21 14:27:58;;;;;;;9.52;5.65;;;;;;;;;;5055087;28;20040;-77
2022/04/21 14:30:23;;;;;;;9.10;5.60;;;;;;;;;;5054539;28;20017;-76
2022/04/21 14:32:49;;;;;;;10.60;5.83;;;;;;;;;;5056116;28;20345;-76
2022/04/21 14:35:14;;;;;;;11.18;6.07;;;;;;;;;;5055796;28;20329;-76
2022/04/21 14:45:51;;;;;;;10.57;5.65;;;;;;;;;;5056388;28;20163;-76
2022/04/21 14:48:16;;;;;;;9.48;5.88;;;;;;;;;;5055374;28;20107;-77
2022/04/21 14:50:41;;;;;;;12.32;6.32;;;;;;;;;;5055320;28;20419;-77
2022/04/21 14:53:07;;;;;;;10.02;5.72;;;;;;;;;;5055082;28;20033;-76
2022/04/21 14:55:32;;;;;;;11.85;6.32;;;;;;;;;;5055842;28;20021;-76
2022/04/21 14:57:57;;;;;;;10.77;6.03;;;;;;;;;;5054995;28;20518;-76
2022/04/21 15:00:23;;;;;;;10.65;6.22;;;;;;;;;;5055186;28;20022;-77
2022/04/21 15:02:48;;;;;;;10.85;6.22;;;;;;;;;;5054974;28;20119;-77
2022/04/21 15:05:13;;;;;;;16.35;6.30;;;;;;;;;;5055256;28;20115;-77
2022/04/21 15:07:38;;;;;;;12.23;6.43;;;;;;;;;;5054932;28;20444;-77
2022/04/21 15:10:04;;;;;;;11.05;5.78;;;;;;;;;;5055601;28;20021;-77
2022/04/21 15:12:30;;;;;;;11.35;6.60;;;;;;;;;;5054552;28;20032;-77
2022/04/21 15:14:56;;;;;;;9.85;5.70;;;;;;;;;;5054862;28;20082;-76
2022/04/21 15:17:21;;;;;;;11.63;6.15;;;;;;;;;;5054570;28;20028;-77
2022/04/21 15:19:47;;;;;;;10.88;5.90;;;;;;;;;;5054608;28;20026;-76
2022/04/21 15:22:15;;;;;;;9.25;5.25;;;;;;;;;;5053197;28;20029;-77
2022/04/21 15:24:42;;;;;;;11.57;5.60;;;;;;;;;;5054410;28;20102;-77
2022/04/21 15:27:07;;;;;;;13.73;6.15;;;;;;;;;;5053054;28;20117;-77
2022/04/21 15:29:33;;;;;;;9.70;5.60;;;;;;;;;;5057263;28;20413;-76
2022/04/21 15:31:58;;;;;;;11.60;6.30;;;;;;;;;;5056198;28;20440;-77